sensor_id;sensor_type;location;lat;lon;timestamp;P1;durP1;ratioP1;P2;durP2;ratioP2
77854;SDS011;67046;50.088;14.336;2023-05-19T00:00:16;6.60;;;3.30;;
77854;SDS011;67046;50.088;14.336;2023-05-19T00:01:08;7.20;;;3.90;;
77854;SDS011;67046;50.088;14.336;2023-05-19T00:01:41;5.90;;;2.90;;
77854;SDS011;67046;50.088;14.336;2023-05-19T00:02:18;5.60;;;2.70;;
77854;SDS011;67046;50.088;14.336;2023-05-19T00:02:50;9.30;;;3.30;;
77854;SDS011;67046;50.088;14.336;2023-05-19T00:03:22;8.50;;;2.80;;
77854;SDS011;67046;50.088;14.336;2023-05-19T00:03:55;9.30;;;3.10;;
77854;SDS011;67046;50.088;14.336;2023-05-19T00:04:28;8.20;;;3.40;;
77854;SDS011;67046;50.088;14.336;2023-05-19T00:05:00;5.90;;;3.00;;
77854;SDS011;67046;50.088;14.336;2023-05-19T00:05:32;6.50;;;2.70;;
77854;SDS011;67046;50.088;14.336;2023-05-19T00:06:05;5.80;;;3.00;;
77854;SDS011;67046;50.088;14.336;2023-05-19T00:06:40;5.50;;;3.00;;
77854;SDS011;67046;50.088;14.336;2023-05-19T00:07:11;5.40;;;2.80;;
77854;SDS011;67046;50.088;14.336;2023-05-19T00:07:47;5.30;;;3.00;;
77854;SDS011;67046;50.088;14.336;2023-05-19T00:08:22;5.90;;;3.20;;
77854;SDS011;67046;50.088;14.336;2023-05-19T00:08:58;8.40;;;3.10;;
77854;SDS011;67046;50.088;14.336;2023-05-19T00:09:31;5.20;;;2.90;;
77854;SDS011;67046;50.088;14.336;2023-05-19T00:10:03;7.00;;;3.20;;
77854;SDS011;67046;50.088;14.336;2023-05-19T00:10:35;5.60;;;3.20;;
77854;SDS011;67046;50.088;14.336;2023-05-19T00:11:07;5.90;;;2.80;;
77854;SDS011;67046;50.088;14.336;2023-05-19T00:11:38;5.90;;;3.20;;
77854;SDS011;67046;50.088;14.336;2023-05-19T00:12:10;5.70;;;3.00;;
77854;SDS011;67046;50.088;14.336;2023-05-19T00:12:42;5.00;;;3.20;;
77854;SDS011;67046;50.088;14.336;2023-05-19T00:13:46;6.20;;;2.60;;
77854;SDS011;67046;50.088;14.336;2023-05-19T00:14:19;5.10;;;2.80;;
77854;SDS011;67046;50.088;14.336;2023-05-19T00:14:51;4.50;;;2.70;;
77854;SDS011;67046;50.088;14.336;2023-05-19T00:15:22;5.60;;;3.00;;
77854;SDS011;67046;50.088;14.336;2023-05-19T00:15:54;6.50;;;2.70;;
77854;SDS011;67046;50.088;14.336;2023-05-19T00:16:26;5.80;;;2.80;;
77854;SDS011;67046;50.088;14.336;2023-05-19T00:16:58;6.00;;;2.80;;
77854;SDS011;67046;50.088;14.336;2023-05-19T00:17:31;5.40;;;2.80;;
77854;SDS011;67046;50.088;14.336;2023-05-19T00:18:04;8.50;;;2.80;;
77854;SDS011;67046;50.088;14.336;2023-05-19T00:18:35;6.60;;;3.40;;
77854;SDS011;67046;50.088;14.336;2023-05-19T00:19:07;7.20;;;3.40;;
77854;SDS011;67046;50.088;14.336;2023-05-19T00:19:41;6.80;;;3.00;;
77854;SDS011;67046;50.088;14.336;2023-05-19T00:20:14;4.50;;;2.70;;
77854;SDS011;67046;50.088;14.336;2023-05-19T00:20:46;6.70;;;3.10;;
77854;SDS011;67046;50.088;14.336;2023-05-19T00:21:17;4.20;;;2.70;;
77854;SDS011;67046;50.088;14.336;2023-05-19T00:21:49;5.70;;;3.10;;
77854;SDS011;67046;50.088;14.336;2023-05-19T00:22:20;5.40;;;2.30;;
77854;SDS011;67046;50.088;14.336;2023-05-19T00:22:52;5.20;;;2.20;;
77854;SDS011;67046;50.088;14.336;2023-05-19T00:23:23;5.40;;;3.30;;
77854;SDS011;67046;50.088;14.336;2023-05-19T00:23:54;7.50;;;3.20;;
77854;SDS011;67046;50.088;14.336;2023-05-19T00:24:26;6.20;;;3.00;;
77854;SDS011;67046;50.088;14.336;2023-05-19T00:24:57;5.80;;;3.50;;
77854;SDS011;67046;50.088;14.336;2023-05-19T00:25:28;6.10;;;2.70;;
77854;SDS011;67046;50.088;14.336;2023-05-19T00:25:59;4.00;;;2.40;;
77854;SDS011;67046;50.088;14.336;2023-05-19T00:26:30;4.50;;;2.80;;
77854;SDS011;67046;50.088;14.336;2023-05-19T00:27:02;6.10;;;2.70;;
77854;SDS011;67046;50.088;14.336;2023-05-19T00:27:33;6.30;;;2.80;;
77854;SDS011;67046;50.088;14.336;2023-05-19T00:28:05;5.80;;;2.60;;
77854;SDS011;67046;50.088;14.336;2023-05-19T00:28:36;5.50;;;2.60;;
77854;SDS011;67046;50.088;14.336;2023-05-19T00:29:07;5.50;;;2.50;;
77854;SDS011;67046;50.088;14.336;2023-05-19T00:29:39;5.30;;;2.70;;
77854;SDS011;67046;50.088;14.336;2023-05-19T00:30:10;5.60;;;3.10;;
77854;SDS011;67046;50.088;14.336;2023-05-19T00:30:41;6.80;;;2.20;;
77854;SDS011;67046;50.088;14.336;2023-05-19T00:31:13;6.50;;;3.00;;
77854;SDS011;67046;50.088;14.336;2023-05-19T00:31:44;5.90;;;2.60;;
77854;SDS011;67046;50.088;14.336;2023-05-19T00:32:16;4.70;;;2.30;;
77854;SDS011;67046;50.088;14.336;2023-05-19T00:32:47;4.20;;;2.60;;
77854;SDS011;67046;50.088;14.336;2023-05-19T00:33:18;5.80;;;2.70;;
77854;SDS011;67046;50.088;14.336;2023-05-19T00:33:49;5.10;;;2.40;;
77854;SDS011;67046;50.088;14.336;2023-05-19T00:34:21;4.70;;;2.40;;
77854;SDS011;67046;50.088;14.336;2023-05-19T00:34:53;6.70;;;2.60;;
77854;SDS011;67046;50.088;14.336;2023-05-19T00:35:24;5.50;;;2.50;;
77854;SDS011;67046;50.088;14.336;2023-05-19T00:35:55;4.20;;;2.40;;
77854;SDS011;67046;50.088;14.336;2023-05-19T00:36:27;5.70;;;2.10;;
77854;SDS011;67046;50.088;14.336;2023-05-19T00:36:58;6.80;;;2.30;;
77854;SDS011;67046;50.088;14.336;2023-05-19T00:37:29;5.60;;;2.80;;
77854;SDS011;67046;50.088;14.336;2023-05-19T00:38:00;6.10;;;2.50;;
77854;SDS011;67046;50.088;14.336;2023-05-19T00:38:33;3.60;;;2.20;;
77854;SDS011;67046;50.088;14.336;2023-05-19T00:39:05;4.40;;;1.90;;
77854;SDS011;67046;50.088;14.336;2023-05-19T00:39:37;5.30;;;2.60;;
77854;SDS011;67046;50.088;14.336;2023-05-19T00:40:08;6.30;;;2.50;;
77854;SDS011;67046;50.088;14.336;2023-05-19T00:40:40;4.90;;;2.70;;
77854;SDS011;67046;50.088;14.336;2023-05-19T00:41:11;4.40;;;2.20;;
77854;SDS011;67046;50.088;14.336;2023-05-19T00:41:43;4.30;;;2.50;;
77854;SDS011;67046;50.088;14.336;2023-05-19T00:42:14;5.00;;;2.10;;
77854;SDS011;67046;50.088;14.336;2023-05-19T00:42:45;4.90;;;2.50;;
77854;SDS011;67046;50.088;14.336;2023-05-19T00:43:16;4.30;;;2.20;;
77854;SDS011;67046;50.088;14.336;2023-05-19T00:43:48;4.80;;;2.00;;
77854;SDS011;67046;50.088;14.336;2023-05-19T00:44:20;4.10;;;1.90;;
77854;SDS011;67046;50.088;14.336;2023-05-19T00:44:51;3.90;;;2.40;;
77854;SDS011;67046;50.088;14.336;2023-05-19T00:45:23;3.80;;;2.20;;
77854;SDS011;67046;50.088;14.336;2023-05-19T00:45:55;3.90;;;2.60;;
77854;SDS011;67046;50.088;14.336;2023-05-19T00:46:26;5.20;;;2.10;;
77854;SDS011;67046;50.088;14.336;2023-05-19T00:46:58;3.90;;;2.00;;
77854;SDS011;67046;50.088;14.336;2023-05-19T00:47:29;4.90;;;2.20;;
77854;SDS011;67046;50.088;14.336;2023-05-19T00:48:00;4.90;;;1.80;;
77854;SDS011;67046;50.088;14.336;2023-05-19T00:48:32;4.60;;;2.10;;
77854;SDS011;67046;50.088;14.336;2023-05-19T00:49:03;3.80;;;1.90;;
77854;SDS011;67046;50.088;14.336;2023-05-19T00:49:35;5.80;;;2.10;;
77854;SDS011;67046;50.088;14.336;2023-05-19T00:50:06;3.60;;;2.20;;
77854;SDS011;67046;50.088;14.336;2023-05-19T00:50:37;3.70;;;2.10;;
77854;SDS011;67046;50.088;14.336;2023-05-19T00:51:09;4.00;;;2.50;;
77854;SDS011;67046;50.088;14.336;2023-05-19T00:51:46;5.80;;;2.80;;
77854;SDS011;67046;50.088;14.336;2023-05-19T00:52:17;4.30;;;2.00;;
77854;SDS011;67046;50.088;14.336;2023-05-19T00:52:49;3.80;;;2.20;;
77854;SDS011;67046;50.088;14.336;2023-05-19T00:53:21;5.70;;;2.60;;
77854;SDS011;67046;50.088;14.336;2023-05-19T00:53:53;5.00;;;2.10;;
77854;SDS011;67046;50.088;14.336;2023-05-19T00:54:24;5.00;;;2.10;;
77854;SDS011;67046;50.088;14.336;2023-05-19T00:54:55;3.10;;;1.90;;
77854;SDS011;67046;50.088;14.336;2023-05-19T00:55:27;4.50;;;2.60;;
77854;SDS011;67046;50.088;14.336;2023-05-19T00:56:01;4.70;;;2.00;;
77854;SDS011;67046;50.088;14.336;2023-05-19T00:56:33;2.70;;;2.00;;
77854;SDS011;67046;50.088;14.336;2023-05-19T00:57:04;6.10;;;2.20;;
77854;SDS011;67046;50.088;14.336;2023-05-19T00:57:36;11.00;;;2.90;;
77854;SDS011;67046;50.088;14.336;2023-05-19T00:58:09;4.30;;;2.50;;
77854;SDS011;67046;50.088;14.336;2023-05-19T00:58:41;3.80;;;2.30;;
77854;SDS011;67046;50.088;14.336;2023-05-19T00:59:13;5.70;;;2.10;;
77854;SDS011;67046;50.088;14.336;2023-05-19T00:59:48;5.00;;;2.10;;
77854;SDS011;67046;50.088;14.336;2023-05-19T01:00:19;3.40;;;2.20;;
77854;SDS011;67046;50.088;14.336;2023-05-19T01:00:51;5.40;;;2.10;;
77854;SDS011;67046;50.088;14.336;2023-05-19T01:01:22;3.80;;;2.00;;
77854;SDS011;67046;50.088;14.336;2023-05-19T01:01:56;4.50;;;2.20;;
77854;SDS011;67046;50.088;14.336;2023-05-19T01:02:27;4.90;;;2.30;;
77854;SDS011;67046;50.088;14.336;2023-05-19T01:02:59;5.00;;;1.90;;
77854;SDS011;67046;50.088;14.336;2023-05-19T01:03:31;6.50;;;2.90;;
77854;SDS011;67046;50.088;14.336;2023-05-19T01:04:07;4.40;;;2.40;;
77854;SDS011;67046;50.088;14.336;2023-05-19T01:04:40;4.80;;;2.10;;
77854;SDS011;67046;50.088;14.336;2023-05-19T01:05:13;5.10;;;2.30;;
77854;SDS011;67046;50.088;14.336;2023-05-19T01:05:44;6.30;;;2.00;;
77854;SDS011;67046;50.088;14.336;2023-05-19T01:06:17;4.30;;;2.20;;
77854;SDS011;67046;50.088;14.336;2023-05-19T01:06:51;3.90;;;2.40;;
77854;SDS011;67046;50.088;14.336;2023-05-19T01:07:24;4.20;;;2.50;;
77854;SDS011;67046;50.088;14.336;2023-05-19T01:08:28;5.40;;;1.80;;
77854;SDS011;67046;50.088;14.336;2023-05-19T01:09:01;5.30;;;2.50;;
77854;SDS011;67046;50.088;14.336;2023-05-19T01:09:33;3.50;;;1.80;;
77854;SDS011;67046;50.088;14.336;2023-05-19T01:10:04;3.90;;;2.30;;
77854;SDS011;67046;50.088;14.336;2023-05-19T01:10:36;5.00;;;2.20;;
77854;SDS011;67046;50.088;14.336;2023-05-19T01:11:07;4.40;;;2.50;;
77854;SDS011;67046;50.088;14.336;2023-05-19T01:11:39;4.30;;;2.10;;
77854;SDS011;67046;50.088;14.336;2023-05-19T01:12:10;4.70;;;1.80;;
77854;SDS011;67046;50.088;14.336;2023-05-19T01:12:41;4.00;;;2.30;;
77854;SDS011;67046;50.088;14.336;2023-05-19T01:13:13;6.00;;;2.40;;
77854;SDS011;67046;50.088;14.336;2023-05-19T01:13:44;3.80;;;2.20;;
77854;SDS011;67046;50.088;14.336;2023-05-19T01:14:16;5.40;;;2.20;;
77854;SDS011;67046;50.088;14.336;2023-05-19T01:14:48;3.70;;;2.20;;
77854;SDS011;67046;50.088;14.336;2023-05-19T01:15:20;4.50;;;2.10;;
77854;SDS011;67046;50.088;14.336;2023-05-19T01:16:03;4.40;;;2.00;;
77854;SDS011;67046;50.088;14.336;2023-05-19T01:16:39;4.90;;;2.00;;
77854;SDS011;67046;50.088;14.336;2023-05-19T01:17:17;3.20;;;1.90;;
77854;SDS011;67046;50.088;14.336;2023-05-19T01:18:13;3.30;;;1.90;;
77854;SDS011;67046;50.088;14.336;2023-05-19T01:18:51;6.80;;;2.40;;
77854;SDS011;67046;50.088;14.336;2023-05-19T01:20:21;3.00;;;1.80;;
77854;SDS011;67046;50.088;14.336;2023-05-19T01:22:39;4.30;;;1.90;;
77854;SDS011;67046;50.088;14.336;2023-05-19T01:29:41;4.40;;;2.00;;
77854;SDS011;67046;50.088;14.336;2023-05-19T01:31:00;5.10;;;2.30;;
77854;SDS011;67046;50.088;14.336;2023-05-19T01:31:36;3.80;;;1.90;;
77854;SDS011;67046;50.088;14.336;2023-05-19T01:32:11;3.40;;;2.30;;
77854;SDS011;67046;50.088;14.336;2023-05-19T01:32:46;4.30;;;1.90;;
77854;SDS011;67046;50.088;14.336;2023-05-19T01:33:19;4.30;;;2.50;;
77854;SDS011;67046;50.088;14.336;2023-05-19T01:33:52;3.00;;;2.00;;
77854;SDS011;67046;50.088;14.336;2023-05-19T01:34:25;5.40;;;2.30;;
77854;SDS011;67046;50.088;14.336;2023-05-19T01:34:57;4.80;;;2.30;;
77854;SDS011;67046;50.088;14.336;2023-05-19T01:35:29;3.40;;;1.90;;
77854;SDS011;67046;50.088;14.336;2023-05-19T01:36:02;3.90;;;2.40;;
77854;SDS011;67046;50.088;14.336;2023-05-19T01:36:33;4.90;;;2.00;;
77854;SDS011;67046;50.088;14.336;2023-05-19T01:37:06;3.50;;;2.00;;
77854;SDS011;67046;50.088;14.336;2023-05-19T01:37:39;5.10;;;2.70;;
77854;SDS011;67046;50.088;14.336;2023-05-19T01:38:11;5.00;;;2.20;;
77854;SDS011;67046;50.088;14.336;2023-05-19T01:38:47;5.80;;;2.30;;
77854;SDS011;67046;50.088;14.336;2023-05-19T01:39:21;3.70;;;2.10;;
77854;SDS011;67046;50.088;14.336;2023-05-19T01:40:26;3.00;;;2.10;;
77854;SDS011;67046;50.088;14.336;2023-05-19T01:40:58;3.70;;;2.00;;
77854;SDS011;67046;50.088;14.336;2023-05-19T01:41:32;6.70;;;2.50;;
77854;SDS011;67046;50.088;14.336;2023-05-19T01:42:04;5.30;;;2.30;;
77854;SDS011;67046;50.088;14.336;2023-05-19T01:42:37;4.40;;;2.40;;
77854;SDS011;67046;50.088;14.336;2023-05-19T01:43:11;5.50;;;2.10;;
77854;SDS011;67046;50.088;14.336;2023-05-19T01:43:50;3.50;;;2.30;;
77854;SDS011;67046;50.088;14.336;2023-05-19T01:44:21;4.90;;;2.30;;
77854;SDS011;67046;50.088;14.336;2023-05-19T01:44:53;5.70;;;2.60;;
77854;SDS011;67046;50.088;14.336;2023-05-19T01:45:29;4.90;;;2.70;;
77854;SDS011;67046;50.088;14.336;2023-05-19T01:46:01;5.90;;;2.10;;
77854;SDS011;67046;50.088;14.336;2023-05-19T01:46:33;5.70;;;2.20;;
77854;SDS011;67046;50.088;14.336;2023-05-19T01:47:04;11.00;;;2.60;;
77854;SDS011;67046;50.088;14.336;2023-05-19T01:47:39;4.20;;;2.10;;
77854;SDS011;67046;50.088;14.336;2023-05-19T01:48:12;4.40;;;2.20;;
77854;SDS011;67046;50.088;14.336;2023-05-19T01:48:44;4.10;;;2.10;;
77854;SDS011;67046;50.088;14.336;2023-05-19T01:49:17;5.80;;;2.70;;
77854;SDS011;67046;50.088;14.336;2023-05-19T01:49:48;4.80;;;2.50;;
77854;SDS011;67046;50.088;14.336;2023-05-19T01:50:19;4.70;;;1.90;;
77854;SDS011;67046;50.088;14.336;2023-05-19T01:50:51;4.00;;;2.20;;
77854;SDS011;67046;50.088;14.336;2023-05-19T01:51:22;3.90;;;2.40;;
77854;SDS011;67046;50.088;14.336;2023-05-19T01:51:53;4.70;;;2.30;;
77854;SDS011;67046;50.088;14.336;2023-05-19T01:52:24;3.30;;;2.00;;
77854;SDS011;67046;50.088;14.336;2023-05-19T01:52:56;4.30;;;2.80;;
77854;SDS011;67046;50.088;14.336;2023-05-19T01:53:28;4.80;;;2.50;;
77854;SDS011;67046;50.088;14.336;2023-05-19T01:53:59;3.80;;;1.90;;
77854;SDS011;67046;50.088;14.336;2023-05-19T01:54:30;4.30;;;2.30;;
77854;SDS011;67046;50.088;14.336;2023-05-19T01:55:02;4.70;;;1.90;;
77854;SDS011;67046;50.088;14.336;2023-05-19T01:55:47;4.30;;;2.40;;
77854;SDS011;67046;50.088;14.336;2023-05-19T01:56:23;5.30;;;2.70;;
77854;SDS011;67046;50.088;14.336;2023-05-19T01:58:54;4.00;;;2.00;;
77854;SDS011;67046;50.088;14.336;2023-05-19T02:01:37;3.00;;;1.90;;
77854;SDS011;67046;50.088;14.336;2023-05-19T02:02:29;3.20;;;2.00;;
77854;SDS011;67046;50.088;14.336;2023-05-19T02:04:42;5.90;;;1.90;;
77854;SDS011;67046;50.088;14.336;2023-05-19T02:05:29;4.70;;;2.30;;
77854;SDS011;67046;50.088;14.336;2023-05-19T02:07:09;4.30;;;2.30;;
77854;SDS011;67046;50.088;14.336;2023-05-19T02:07:51;5.10;;;2.40;;
77854;SDS011;67046;50.088;14.336;2023-05-19T02:09:33;3.20;;;1.90;;
77854;SDS011;67046;50.088;14.336;2023-05-19T02:10:11;5.70;;;2.50;;
77854;SDS011;67046;50.088;14.336;2023-05-19T02:10:51;3.80;;;2.10;;
77854;SDS011;67046;50.088;14.336;2023-05-19T02:12:19;4.00;;;2.10;;
77854;SDS011;67046;50.088;14.336;2023-05-19T02:12:53;5.40;;;2.50;;
77854;SDS011;67046;50.088;14.336;2023-05-19T02:13:29;5.20;;;2.10;;
77854;SDS011;67046;50.088;14.336;2023-05-19T02:14:07;4.10;;;2.10;;
77854;SDS011;67046;50.088;14.336;2023-05-19T02:14:49;8.70;;;2.10;;
77854;SDS011;67046;50.088;14.336;2023-05-19T02:15:36;4.50;;;1.90;;
77854;SDS011;67046;50.088;14.336;2023-05-19T02:16:11;3.70;;;2.20;;
77854;SDS011;67046;50.088;14.336;2023-05-19T02:16:44;4.20;;;2.40;;
77854;SDS011;67046;50.088;14.336;2023-05-19T02:17:17;3.20;;;2.10;;
77854;SDS011;67046;50.088;14.336;2023-05-19T02:17:50;4.40;;;2.40;;
77854;SDS011;67046;50.088;14.336;2023-05-19T02:18:25;4.60;;;2.40;;
77854;SDS011;67046;50.088;14.336;2023-05-19T02:18:59;4.40;;;2.50;;
77854;SDS011;67046;50.088;14.336;2023-05-19T02:19:31;4.60;;;2.30;;
77854;SDS011;67046;50.088;14.336;2023-05-19T02:20:04;4.20;;;2.30;;
77854;SDS011;67046;50.088;14.336;2023-05-19T02:21:09;3.40;;;1.70;;
77854;SDS011;67046;50.088;14.336;2023-05-19T02:21:43;4.80;;;2.00;;
77854;SDS011;67046;50.088;14.336;2023-05-19T02:22:14;4.00;;;2.20;;
77854;SDS011;67046;50.088;14.336;2023-05-19T02:22:45;7.30;;;2.60;;
77854;SDS011;67046;50.088;14.336;2023-05-19T02:23:16;4.80;;;2.30;;
77854;SDS011;67046;50.088;14.336;2023-05-19T02:23:48;4.20;;;2.00;;
77854;SDS011;67046;50.088;14.336;2023-05-19T02:24:52;4.00;;;2.00;;
77854;SDS011;67046;50.088;14.336;2023-05-19T02:25:23;4.30;;;2.40;;
77854;SDS011;67046;50.088;14.336;2023-05-19T02:25:54;4.60;;;2.10;;
77854;SDS011;67046;50.088;14.336;2023-05-19T02:26:26;5.00;;;2.20;;
77854;SDS011;67046;50.088;14.336;2023-05-19T02:26:57;3.50;;;2.10;;
77854;SDS011;67046;50.088;14.336;2023-05-19T02:27:29;5.10;;;2.50;;
77854;SDS011;67046;50.088;14.336;2023-05-19T02:28:00;4.60;;;2.60;;
77854;SDS011;67046;50.088;14.336;2023-05-19T02:28:31;5.20;;;2.50;;
77854;SDS011;67046;50.088;14.336;2023-05-19T02:29:03;5.30;;;2.90;;
77854;SDS011;67046;50.088;14.336;2023-05-19T02:29:34;4.20;;;2.10;;
77854;SDS011;67046;50.088;14.336;2023-05-19T02:30:06;4.20;;;2.60;;
77854;SDS011;67046;50.088;14.336;2023-05-19T02:30:38;5.10;;;2.50;;
77854;SDS011;67046;50.088;14.336;2023-05-19T02:31:09;4.20;;;2.40;;
77854;SDS011;67046;50.088;14.336;2023-05-19T02:31:41;4.30;;;2.30;;
77854;SDS011;67046;50.088;14.336;2023-05-19T02:32:12;5.60;;;2.50;;
77854;SDS011;67046;50.088;14.336;2023-05-19T02:32:44;4.00;;;2.30;;
77854;SDS011;67046;50.088;14.336;2023-05-19T02:33:16;3.60;;;2.10;;
77854;SDS011;67046;50.088;14.336;2023-05-19T02:33:49;5.30;;;2.60;;
77854;SDS011;67046;50.088;14.336;2023-05-19T02:34:20;5.40;;;2.50;;
77854;SDS011;67046;50.088;14.336;2023-05-19T02:34:51;5.70;;;2.40;;
77854;SDS011;67046;50.088;14.336;2023-05-19T02:35:23;5.00;;;2.30;;
77854;SDS011;67046;50.088;14.336;2023-05-19T02:35:54;5.80;;;2.50;;
77854;SDS011;67046;50.088;14.336;2023-05-19T02:36:26;5.40;;;2.50;;
77854;SDS011;67046;50.088;14.336;2023-05-19T02:36:57;4.70;;;3.10;;
77854;SDS011;67046;50.088;14.336;2023-05-19T02:37:29;3.30;;;2.50;;
77854;SDS011;67046;50.088;14.336;2023-05-19T02:38:00;4.00;;;2.70;;
77854;SDS011;67046;50.088;14.336;2023-05-19T02:38:32;4.80;;;2.90;;
77854;SDS011;67046;50.088;14.336;2023-05-19T02:39:03;4.60;;;2.70;;
77854;SDS011;67046;50.088;14.336;2023-05-19T02:39:34;6.50;;;2.50;;
77854;SDS011;67046;50.088;14.336;2023-05-19T02:40:05;4.50;;;2.50;;
77854;SDS011;67046;50.088;14.336;2023-05-19T02:40:37;5.50;;;2.80;;
77854;SDS011;67046;50.088;14.336;2023-05-19T02:41:08;6.90;;;2.80;;
77854;SDS011;67046;50.088;14.336;2023-05-19T02:41:40;4.50;;;3.30;;
77854;SDS011;67046;50.088;14.336;2023-05-19T02:42:11;5.20;;;2.50;;
77854;SDS011;67046;50.088;14.336;2023-05-19T02:42:44;5.90;;;2.70;;
77854;SDS011;67046;50.088;14.336;2023-05-19T02:43:15;5.20;;;2.70;;
77854;SDS011;67046;50.088;14.336;2023-05-19T02:43:47;4.80;;;2.90;;
77854;SDS011;67046;50.088;14.336;2023-05-19T02:44:18;5.50;;;2.60;;
77854;SDS011;67046;50.088;14.336;2023-05-19T02:44:49;4.50;;;2.40;;
77854;SDS011;67046;50.088;14.336;2023-05-19T02:45:21;4.60;;;2.70;;
77854;SDS011;67046;50.088;14.336;2023-05-19T02:45:52;7.30;;;3.50;;
77854;SDS011;67046;50.088;14.336;2023-05-19T02:46:23;5.50;;;2.80;;
77854;SDS011;67046;50.088;14.336;2023-05-19T02:46:55;5.20;;;2.60;;
77854;SDS011;67046;50.088;14.336;2023-05-19T02:47:26;4.70;;;2.90;;
77854;SDS011;67046;50.088;14.336;2023-05-19T02:47:58;5.00;;;3.00;;
77854;SDS011;67046;50.088;14.336;2023-05-19T02:48:29;5.40;;;2.80;;
77854;SDS011;67046;50.088;14.336;2023-05-19T02:49:00;4.90;;;2.40;;
77854;SDS011;67046;50.088;14.336;2023-05-19T02:49:31;5.90;;;2.90;;
77854;SDS011;67046;50.088;14.336;2023-05-19T02:50:05;4.80;;;2.50;;
77854;SDS011;67046;50.088;14.336;2023-05-19T02:50:37;5.50;;;3.00;;
77854;SDS011;67046;50.088;14.336;2023-05-19T02:51:09;3.90;;;2.50;;
77854;SDS011;67046;50.088;14.336;2023-05-19T02:51:40;3.40;;;2.30;;
77854;SDS011;67046;50.088;14.336;2023-05-19T02:52:11;5.40;;;2.90;;
77854;SDS011;67046;50.088;14.336;2023-05-19T02:52:43;4.70;;;2.90;;
77854;SDS011;67046;50.088;14.336;2023-05-19T02:53:14;5.40;;;2.50;;
77854;SDS011;67046;50.088;14.336;2023-05-19T02:53:45;5.40;;;2.60;;
77854;SDS011;67046;50.088;14.336;2023-05-19T02:54:16;4.70;;;3.10;;
77854;SDS011;67046;50.088;14.336;2023-05-19T02:54:48;5.20;;;3.30;;
77854;SDS011;67046;50.088;14.336;2023-05-19T02:55:19;7.30;;;2.80;;
77854;SDS011;67046;50.088;14.336;2023-05-19T02:55:50;5.50;;;3.10;;
77854;SDS011;67046;50.088;14.336;2023-05-19T02:56:22;5.70;;;3.00;;
77854;SDS011;67046;50.088;14.336;2023-05-19T02:56:53;4.30;;;2.80;;
77854;SDS011;67046;50.088;14.336;2023-05-19T02:57:24;5.20;;;3.00;;
77854;SDS011;67046;50.088;14.336;2023-05-19T02:57:56;5.80;;;2.50;;
77854;SDS011;67046;50.088;14.336;2023-05-19T02:58:27;6.80;;;2.80;;
77854;SDS011;67046;50.088;14.336;2023-05-19T02:58:59;9.00;;;4.00;;
77854;SDS011;67046;50.088;14.336;2023-05-19T02:59:30;4.80;;;2.60;;
77854;SDS011;67046;50.088;14.336;2023-05-19T03:00:01;6.70;;;3.20;;
77854;SDS011;67046;50.088;14.336;2023-05-19T03:00:33;6.40;;;2.80;;
77854;SDS011;67046;50.088;14.336;2023-05-19T03:01:04;5.90;;;2.60;;
77854;SDS011;67046;50.088;14.336;2023-05-19T03:01:35;6.40;;;3.50;;
77854;SDS011;67046;50.088;14.336;2023-05-19T03:02:07;6.00;;;3.30;;
77854;SDS011;67046;50.088;14.336;2023-05-19T03:02:38;3.90;;;2.60;;
77854;SDS011;67046;50.088;14.336;2023-05-19T03:03:10;6.50;;;3.30;;
77854;SDS011;67046;50.088;14.336;2023-05-19T03:03:43;5.20;;;3.00;;
77854;SDS011;67046;50.088;14.336;2023-05-19T03:04:14;6.90;;;2.70;;
77854;SDS011;67046;50.088;14.336;2023-05-19T03:04:45;5.40;;;3.10;;
77854;SDS011;67046;50.088;14.336;2023-05-19T03:05:16;4.10;;;2.70;;
77854;SDS011;67046;50.088;14.336;2023-05-19T03:05:48;5.60;;;2.90;;
77854;SDS011;67046;50.088;14.336;2023-05-19T03:06:19;4.10;;;2.90;;
77854;SDS011;67046;50.088;14.336;2023-05-19T03:06:52;5.30;;;2.90;;
77854;SDS011;67046;50.088;14.336;2023-05-19T03:07:23;5.20;;;3.00;;
77854;SDS011;67046;50.088;14.336;2023-05-19T03:07:55;7.00;;;3.10;;
77854;SDS011;67046;50.088;14.336;2023-05-19T03:08:26;3.70;;;2.80;;
77854;SDS011;67046;50.088;14.336;2023-05-19T03:08:58;6.30;;;3.20;;
77854;SDS011;67046;50.088;14.336;2023-05-19T03:09:29;5.00;;;2.90;;
77854;SDS011;67046;50.088;14.336;2023-05-19T03:10:00;6.80;;;3.30;;
77854;SDS011;67046;50.088;14.336;2023-05-19T03:10:36;5.70;;;2.90;;
77854;SDS011;67046;50.088;14.336;2023-05-19T03:11:07;5.20;;;3.40;;
77854;SDS011;67046;50.088;14.336;2023-05-19T03:11:38;4.40;;;2.60;;
77854;SDS011;67046;50.088;14.336;2023-05-19T03:12:09;5.40;;;3.30;;
77854;SDS011;67046;50.088;14.336;2023-05-19T03:12:40;6.50;;;2.50;;
77854;SDS011;67046;50.088;14.336;2023-05-19T03:13:11;7.90;;;3.00;;
77854;SDS011;67046;50.088;14.336;2023-05-19T03:13:43;4.40;;;2.90;;
77854;SDS011;67046;50.088;14.336;2023-05-19T03:14:14;7.10;;;3.40;;
77854;SDS011;67046;50.088;14.336;2023-05-19T03:14:45;4.90;;;3.40;;
77854;SDS011;67046;50.088;14.336;2023-05-19T03:15:17;6.20;;;3.00;;
77854;SDS011;67046;50.088;14.336;2023-05-19T03:15:48;5.90;;;3.40;;
77854;SDS011;67046;50.088;14.336;2023-05-19T03:16:20;7.90;;;3.30;;
77854;SDS011;67046;50.088;14.336;2023-05-19T03:16:51;5.90;;;3.20;;
77854;SDS011;67046;50.088;14.336;2023-05-19T03:17:22;4.80;;;3.20;;
77854;SDS011;67046;50.088;14.336;2023-05-19T03:17:54;4.80;;;3.30;;
77854;SDS011;67046;50.088;14.336;2023-05-19T03:18:25;5.10;;;3.20;;
77854;SDS011;67046;50.088;14.336;2023-05-19T03:18:56;5.40;;;3.30;;
77854;SDS011;67046;50.088;14.336;2023-05-19T03:19:28;5.00;;;2.80;;
77854;SDS011;67046;50.088;14.336;2023-05-19T03:20:02;5.60;;;2.90;;
77854;SDS011;67046;50.088;14.336;2023-05-19T03:20:35;3.90;;;3.00;;
77854;SDS011;67046;50.088;14.336;2023-05-19T03:21:06;5.40;;;3.30;;
77854;SDS011;67046;50.088;14.336;2023-05-19T03:21:37;4.60;;;3.00;;
77854;SDS011;67046;50.088;14.336;2023-05-19T03:22:08;5.10;;;2.80;;
77854;SDS011;67046;50.088;14.336;2023-05-19T03:22:40;5.30;;;3.10;;
77854;SDS011;67046;50.088;14.336;2023-05-19T03:23:11;4.70;;;2.90;;
77854;SDS011;67046;50.088;14.336;2023-05-19T03:23:42;5.30;;;3.10;;
77854;SDS011;67046;50.088;14.336;2023-05-19T03:24:14;5.60;;;2.90;;
77854;SDS011;67046;50.088;14.336;2023-05-19T03:24:45;5.10;;;3.20;;
77854;SDS011;67046;50.088;14.336;2023-05-19T03:25:19;6.50;;;3.10;;
77854;SDS011;67046;50.088;14.336;2023-05-19T03:25:50;4.90;;;3.00;;
77854;SDS011;67046;50.088;14.336;2023-05-19T03:26:23;5.90;;;3.20;;
77854;SDS011;67046;50.088;14.336;2023-05-19T03:26:55;4.60;;;3.00;;
77854;SDS011;67046;50.088;14.336;2023-05-19T03:27:26;6.40;;;2.90;;
77854;SDS011;67046;50.088;14.336;2023-05-19T03:27:57;6.60;;;3.30;;
77854;SDS011;67046;50.088;14.336;2023-05-19T03:28:28;5.80;;;3.10;;
77854;SDS011;67046;50.088;14.336;2023-05-19T03:28:59;6.50;;;3.40;;
77854;SDS011;67046;50.088;14.336;2023-05-19T03:29:30;7.30;;;3.60;;
77854;SDS011;67046;50.088;14.336;2023-05-19T03:30:02;5.10;;;2.90;;
77854;SDS011;67046;50.088;14.336;2023-05-19T03:30:33;6.10;;;3.10;;
77854;SDS011;67046;50.088;14.336;2023-05-19T03:31:04;5.50;;;3.20;;
77854;SDS011;67046;50.088;14.336;2023-05-19T03:31:35;6.80;;;3.40;;
77854;SDS011;67046;50.088;14.336;2023-05-19T03:32:06;5.60;;;2.70;;
77854;SDS011;67046;50.088;14.336;2023-05-19T03:32:38;6.30;;;3.00;;
77854;SDS011;67046;50.088;14.336;2023-05-19T03:33:09;5.50;;;3.20;;
77854;SDS011;67046;50.088;14.336;2023-05-19T03:33:41;3.80;;;2.80;;
77854;SDS011;67046;50.088;14.336;2023-05-19T03:34:12;5.10;;;2.80;;